This is the latest recevied weather packets stored in our database for station/object DK9XR-14. If no packets are shown the sender has not sent any weather packets the latest 1 day(s).
| Time | Temp. | Humidity | Pressure | Rain* | Wind** | Luminosity | Snow |
|---|---|---|---|---|---|---|---|
| 1778099749 | 9.44° C | 87% | 1011.1 hPa | 0 mm | - | - | - |
| 1778098547 | 9.44° C | 86% | 1011.1 hPa | 0 mm | - | - | - |
| 1778098244 | 9.44° C | 87% | 1011.1 hPa | 0 mm | - | - | - |
| 1778095840 | 9.44° C | 88% | 1010.8 hPa | 0 mm | - | - | - |
| 1778094635 | 9.44° C | 88% | 1010.4 hPa | 0 mm | - | - | - |
| 1778094330 | 10° C | 88% | 1010.4 hPa | 0 mm | - | - | - |
| 1778093730 | 10° C | 88% | 1010.2 hPa | 0 mm | - | - | - |
| 1778092830 | 10° C | 89% | 1010.1 hPa | 0 mm | - | - | - |
| 1778092530 | 10° C | 88% | 1010 hPa | 0 mm | - | - | - |
| 1778091024 | 10° C | 87% | 1009.6 hPa | 0 mm | - | - | - |
| 1778090121 | 10° C | 87% | 1009.5 hPa | 0 mm | - | - | - |
| 1778087713 | 10.56° C | 86% | 1008.9 hPa | 0 mm | - | - | - |
| 1778086806 | 10.56° C | 87% | 1008.9 hPa | 0 mm | - | - | - |
| 1778084404 | 10.56° C | 88% | 1008.8 hPa | 1.78 mm | - | - | - |
| 1778078104 | 18.33° C | 53% | 1006.5 hPa | 0 mm | - | - | - |
| 1778075700 | 17.22° C | 59% | 1006.7 hPa | 0 mm | - | - | - |
| 1778075403 | 17.22° C | 60% | 1006.7 hPa | 0 mm | - | - | - |
| 1778075099 | 17.22° C | 60% | 1006.9 hPa | 0 mm | - | - | - |
| 1778074494 | 17.78° C | 57% | 1007 hPa | 0 mm | - | - | - |
| 1778074194 | 17.78° C | 52% | 1006.9 hPa | 0 mm | - | - | - |
| 1778073594 | 18.33° C | 52% | 1006.8 hPa | 0 mm | - | - | - |
| 1778072692 | 18.33° C | 52% | 1006.8 hPa | 0 mm | - | - | - |
| 1778072388 | 18.33° C | 52% | 1006.7 hPa | 0 mm | - | - | - |
| 1778072087 | 18.33° C | 53% | 1006.7 hPa | 0 mm | - | - | - |
| 1778071482 | 18.89° C | 53% | 1006.6 hPa | 0 mm | - | - | - |
* Rain latest hour (hover to see other rain measurements)
** Current wind speed in m/s (hover to see current wind gust speed)